sensor_id;sensor_type;location;lat;lon;timestamp;P1;durP1;ratioP1;P2;durP2;ratioP2
74939;SDS011;63505;45.226;37.908;2023-06-26T00:01:29;16.10;;;9.50;;
74939;SDS011;63505;45.226;37.908;2023-06-26T00:03:59;15.98;;;8.93;;
74939;SDS011;63505;45.226;37.908;2023-06-26T00:06:26;14.30;;;8.45;;
74939;SDS011;63505;45.226;37.908;2023-06-26T00:08:53;12.90;;;8.32;;
74939;SDS011;63505;45.226;37.908;2023-06-26T00:11:19;15.90;;;8.18;;
74939;SDS011;63505;45.226;37.908;2023-06-26T00:13:46;12.38;;;8.05;;
74939;SDS011;63505;45.226;37.908;2023-06-26T00:16:12;15.77;;;8.20;;
74939;SDS011;63505;45.226;37.908;2023-06-26T00:18:38;13.30;;;8.25;;
74939;SDS011;63505;45.226;37.908;2023-06-26T00:21:04;12.35;;;8.63;;
74939;SDS011;63505;45.226;37.908;2023-06-26T00:23:29;14.38;;;8.80;;
74939;SDS011;63505;45.226;37.908;2023-06-26T00:26:02;14.15;;;8.75;;
74939;SDS011;63505;45.226;37.908;2023-06-26T00:28:29;11.60;;;7.68;;
74939;SDS011;63505;45.226;37.908;2023-06-26T00:30:56;13.57;;;8.13;;
74939;SDS011;63505;45.226;37.908;2023-06-26T00:33:22;14.65;;;8.15;;
74939;SDS011;63505;45.226;37.908;2023-06-26T00:35:49;9.75;;;7.30;;
74939;SDS011;63505;45.226;37.908;2023-06-26T00:38:15;15.32;;;8.82;;
74939;SDS011;63505;45.226;37.908;2023-06-26T00:40:42;15.18;;;7.30;;
74939;SDS011;63505;45.226;37.908;2023-06-26T00:43:09;11.32;;;7.75;;
74939;SDS011;63505;45.226;37.908;2023-06-26T00:45:34;10.80;;;7.75;;
74939;SDS011;63505;45.226;37.908;2023-06-26T00:48:01;12.55;;;8.00;;
74939;SDS011;63505;45.226;37.908;2023-06-26T00:50:28;13.45;;;8.73;;
74939;SDS011;63505;45.226;37.908;2023-06-26T00:52:54;14.70;;;8.55;;
74939;SDS011;63505;45.226;37.908;2023-06-26T00:55:28;13.25;;;8.45;;
74939;SDS011;63505;45.226;37.908;2023-06-26T00:57:55;11.13;;;7.75;;
74939;SDS011;63505;45.226;37.908;2023-06-26T01:00:21;14.95;;;8.13;;
74939;SDS011;63505;45.226;37.908;2023-06-26T01:02:47;14.18;;;9.07;;
74939;SDS011;63505;45.226;37.908;2023-06-26T01:05:13;16.83;;;9.88;;
74939;SDS011;63505;45.226;37.908;2023-06-26T01:07:48;17.55;;;11.43;;
74939;SDS011;63505;45.226;37.908;2023-06-26T01:10:14;18.15;;;12.40;;
74939;SDS011;63505;45.226;37.908;2023-06-26T01:12:40;16.48;;;10.88;;
74939;SDS011;63505;45.226;37.908;2023-06-26T01:15:07;17.48;;;11.77;;
74939;SDS011;63505;45.226;37.908;2023-06-26T01:17:33;16.17;;;10.57;;
74939;SDS011;63505;45.226;37.908;2023-06-26T01:20:03;18.63;;;13.30;;
74939;SDS011;63505;45.226;37.908;2023-06-26T01:22:38;19.35;;;12.18;;
74939;SDS011;63505;45.226;37.908;2023-06-26T01:25:28;24.98;;;15.05;;
74939;SDS011;63505;45.226;37.908;2023-06-26T01:28:04;24.25;;;15.50;;
74939;SDS011;63505;45.226;37.908;2023-06-26T01:30:32;24.95;;;16.38;;
74939;SDS011;63505;45.226;37.908;2023-06-26T01:32:58;30.27;;;17.58;;
74939;SDS011;63505;45.226;37.908;2023-06-26T01:35:26;22.27;;;14.77;;
74939;SDS011;63505;45.226;37.908;2023-06-26T01:37:52;21.60;;;12.60;;
74939;SDS011;63505;45.226;37.908;2023-06-26T01:40:18;20.73;;;11.98;;
74939;SDS011;63505;45.226;37.908;2023-06-26T01:42:45;23.75;;;13.65;;
74939;SDS011;63505;45.226;37.908;2023-06-26T01:45:27;17.60;;;13.10;;
74939;SDS011;63505;45.226;37.908;2023-06-26T01:47:56;25.42;;;15.57;;
74939;SDS011;63505;45.226;37.908;2023-06-26T01:50:26;27.65;;;15.13;;
74939;SDS011;63505;45.226;37.908;2023-06-26T01:53:02;21.85;;;14.55;;
74939;SDS011;63505;45.226;37.908;2023-06-26T01:55:42;23.13;;;15.15;;
74939;SDS011;63505;45.226;37.908;2023-06-26T01:58:10;23.20;;;16.38;;
74939;SDS011;63505;45.226;37.908;2023-06-26T02:00:38;23.30;;;15.10;;
74939;SDS011;63505;45.226;37.908;2023-06-26T02:03:05;26.20;;;14.82;;
74939;SDS011;63505;45.226;37.908;2023-06-26T02:05:32;33.38;;;17.85;;
74939;SDS011;63505;45.226;37.908;2023-06-26T02:07:59;36.33;;;19.10;;
74939;SDS011;63505;45.226;37.908;2023-06-26T02:10:29;29.77;;;16.98;;
74939;SDS011;63505;45.226;37.908;2023-06-26T02:12:55;28.67;;;17.55;;
74939;SDS011;63505;45.226;37.908;2023-06-26T02:15:22;26.80;;;15.00;;
74939;SDS011;63505;45.226;37.908;2023-06-26T02:17:48;26.10;;;14.32;;
74939;SDS011;63505;45.226;37.908;2023-06-26T02:20:14;23.33;;;12.10;;
74939;SDS011;63505;45.226;37.908;2023-06-26T02:22:41;19.80;;;12.30;;
74939;SDS011;63505;45.226;37.908;2023-06-26T02:25:08;20.13;;;12.32;;
74939;SDS011;63505;45.226;37.908;2023-06-26T02:27:35;19.48;;;11.75;;
74939;SDS011;63505;45.226;37.908;2023-06-26T02:30:01;15.82;;;11.27;;
74939;SDS011;63505;45.226;37.908;2023-06-26T02:32:27;21.88;;;12.30;;
74939;SDS011;63505;45.226;37.908;2023-06-26T02:35:18;24.35;;;12.65;;
74939;SDS011;63505;45.226;37.908;2023-06-26T02:37:44;19.95;;;13.00;;
74939;SDS011;63505;45.226;37.908;2023-06-26T02:40:10;19.73;;;12.00;;
74939;SDS011;63505;45.226;37.908;2023-06-26T02:42:37;20.20;;;11.95;;
74939;SDS011;63505;45.226;37.908;2023-06-26T02:45:04;24.92;;;13.65;;
74939;SDS011;63505;45.226;37.908;2023-06-26T02:47:31;24.73;;;14.60;;
74939;SDS011;63505;45.226;37.908;2023-06-26T02:49:57;26.30;;;15.38;;
74939;SDS011;63505;45.226;37.908;2023-06-26T02:52:23;24.92;;;12.73;;
74939;SDS011;63505;45.226;37.908;2023-06-26T02:54:49;22.20;;;11.85;;
74939;SDS011;63505;45.226;37.908;2023-06-26T02:57:15;19.92;;;10.77;;
74939;SDS011;63505;45.226;37.908;2023-06-26T02:59:42;18.63;;;11.07;;
74939;SDS011;63505;45.226;37.908;2023-06-26T03:02:10;20.48;;;11.07;;
74939;SDS011;63505;45.226;37.908;2023-06-26T03:04:43;15.77;;;10.35;;
74939;SDS011;63505;45.226;37.908;2023-06-26T03:09:38;16.13;;;10.88;;
74939;SDS011;63505;45.226;37.908;2023-06-26T03:12:04;17.48;;;10.77;;
74939;SDS011;63505;45.226;37.908;2023-06-26T03:14:32;19.52;;;9.80;;
74939;SDS011;63505;45.226;37.908;2023-06-26T03:17:00;19.35;;;10.75;;
74939;SDS011;63505;45.226;37.908;2023-06-26T03:19:29;15.90;;;10.57;;
74939;SDS011;63505;45.226;37.908;2023-06-26T03:22:17;16.45;;;10.90;;
74939;SDS011;63505;45.226;37.908;2023-06-26T03:24:43;19.52;;;11.35;;
74939;SDS011;63505;45.226;37.908;2023-06-26T03:27:11;19.73;;;11.73;;
74939;SDS011;63505;45.226;37.908;2023-06-26T03:29:37;23.20;;;14.13;;
74939;SDS011;63505;45.226;37.908;2023-06-26T03:32:03;30.85;;;13.27;;
74939;SDS011;63505;45.226;37.908;2023-06-26T03:34:30;22.05;;;12.00;;
74939;SDS011;63505;45.226;37.908;2023-06-26T03:36:56;22.40;;;12.18;;
74939;SDS011;63505;45.226;37.908;2023-06-26T03:39:22;15.05;;;10.35;;
74939;SDS011;63505;45.226;37.908;2023-06-26T03:41:48;34.67;;;25.05;;
74939;SDS011;63505;45.226;37.908;2023-06-26T03:44:14;20.75;;;15.63;;
74939;SDS011;63505;45.226;37.908;2023-06-26T03:46:44;24.63;;;15.57;;
74939;SDS011;63505;45.226;37.908;2023-06-26T03:49:12;18.45;;;11.85;;
74939;SDS011;63505;45.226;37.908;2023-06-26T03:51:38;15.27;;;11.63;;
74939;SDS011;63505;45.226;37.908;2023-06-26T03:54:04;18.48;;;10.43;;
74939;SDS011;63505;45.226;37.908;2023-06-26T03:56:30;20.75;;;11.73;;
74939;SDS011;63505;45.226;37.908;2023-06-26T03:58:56;16.63;;;11.23;;
74939;SDS011;63505;45.226;37.908;2023-06-26T04:01:21;13.82;;;10.32;;
74939;SDS011;63505;45.226;37.908;2023-06-26T04:03:48;17.38;;;9.70;;
74939;SDS011;63505;45.226;37.908;2023-06-26T04:06:14;15.82;;;10.43;;
74939;SDS011;63505;45.226;37.908;2023-06-26T04:08:40;16.60;;;9.50;;
74939;SDS011;63505;45.226;37.908;2023-06-26T04:11:06;17.48;;;9.43;;
74939;SDS011;63505;45.226;37.908;2023-06-26T04:13:32;14.65;;;9.27;;
74939;SDS011;63505;45.226;37.908;2023-06-26T04:15:58;13.25;;;8.80;;
74939;SDS011;63505;45.226;37.908;2023-06-26T04:18:23;17.95;;;10.57;;
74939;SDS011;63505;45.226;37.908;2023-06-26T04:23:37;28.05;;;13.10;;
74939;SDS011;63505;45.226;37.908;2023-06-26T04:26:03;24.92;;;11.55;;
74939;SDS011;63505;45.226;37.908;2023-06-26T04:28:34;25.85;;;14.20;;
74939;SDS011;63505;45.226;37.908;2023-06-26T04:31:00;29.33;;;14.63;;
74939;SDS011;63505;45.226;37.908;2023-06-26T04:35:54;28.98;;;15.13;;
74939;SDS011;63505;45.226;37.908;2023-06-26T04:38:45;23.33;;;11.27;;
74939;SDS011;63505;45.226;37.908;2023-06-26T04:41:13;18.88;;;10.60;;
74939;SDS011;63505;45.226;37.908;2023-06-26T04:43:39;15.70;;;8.98;;
74939;SDS011;63505;45.226;37.908;2023-06-26T04:46:05;13.52;;;8.13;;
74939;SDS011;63505;45.226;37.908;2023-06-26T04:48:32;16.08;;;8.20;;
74939;SDS011;63505;45.226;37.908;2023-06-26T04:50:58;19.40;;;9.07;;
74939;SDS011;63505;45.226;37.908;2023-06-26T04:53:24;17.77;;;10.38;;
74939;SDS011;63505;45.226;37.908;2023-06-26T04:55:50;16.25;;;8.07;;
74939;SDS011;63505;45.226;37.908;2023-06-26T04:58:18;8.85;;;5.72;;
74939;SDS011;63505;45.226;37.908;2023-06-26T05:00:44;12.55;;;5.50;;
74939;SDS011;63505;45.226;37.908;2023-06-26T05:03:14;14.48;;;7.38;;
74939;SDS011;63505;45.226;37.908;2023-06-26T05:05:42;12.98;;;5.25;;
74939;SDS011;63505;45.226;37.908;2023-06-26T05:08:18;10.48;;;5.15;;
74939;SDS011;63505;45.226;37.908;2023-06-26T05:10:47;13.00;;;5.30;;
74939;SDS011;63505;45.226;37.908;2023-06-26T05:13:13;7.18;;;5.25;;
74939;SDS011;63505;45.226;37.908;2023-06-26T05:15:43;11.73;;;5.50;;
74939;SDS011;63505;45.226;37.908;2023-06-26T05:18:09;10.35;;;6.10;;
74939;SDS011;63505;45.226;37.908;2023-06-26T05:20:36;11.57;;;6.35;;
74939;SDS011;63505;45.226;37.908;2023-06-26T05:23:02;12.07;;;7.47;;
74939;SDS011;63505;45.226;37.908;2023-06-26T05:25:29;12.77;;;6.88;;
74939;SDS011;63505;45.226;37.908;2023-06-26T05:27:55;9.48;;;5.85;;
74939;SDS011;63505;45.226;37.908;2023-06-26T05:30:22;11.27;;;6.63;;
74939;SDS011;63505;45.226;37.908;2023-06-26T05:32:51;13.93;;;7.10;;
74939;SDS011;63505;45.226;37.908;2023-06-26T05:35:18;12.55;;;6.95;;
74939;SDS011;63505;45.226;37.908;2023-06-26T05:37:46;9.10;;;7.00;;
74939;SDS011;63505;45.226;37.908;2023-06-26T05:40:16;12.70;;;8.50;;
74939;SDS011;63505;45.226;37.908;2023-06-26T05:42:43;11.50;;;8.90;;
74939;SDS011;63505;45.226;37.908;2023-06-26T05:45:09;12.07;;;8.05;;
74939;SDS011;63505;45.226;37.908;2023-06-26T05:47:35;9.25;;;7.18;;
74939;SDS011;63505;45.226;37.908;2023-06-26T05:50:02;8.80;;;4.82;;
74939;SDS011;63505;45.226;37.908;2023-06-26T05:52:29;11.02;;;5.15;;
74939;SDS011;63505;45.226;37.908;2023-06-26T05:54:58;6.70;;;4.20;;
74939;SDS011;63505;45.226;37.908;2023-06-26T05:57:26;7.70;;;4.32;;
74939;SDS011;63505;45.226;37.908;2023-06-26T05:59:53;6.03;;;3.85;;
74939;SDS011;63505;45.226;37.908;2023-06-26T06:02:19;7.75;;;5.82;;
74939;SDS011;63505;45.226;37.908;2023-06-26T06:04:45;13.85;;;10.05;;
74939;SDS011;63505;45.226;37.908;2023-06-26T06:07:11;9.35;;;7.85;;
74939;SDS011;63505;45.226;37.908;2023-06-26T06:09:37;10.95;;;6.93;;
74939;SDS011;63505;45.226;37.908;2023-06-26T06:12:06;9.52;;;4.75;;
74939;SDS011;63505;45.226;37.908;2023-06-26T06:14:33;10.23;;;7.65;;
74939;SDS011;63505;45.226;37.908;2023-06-26T06:17:00;10.00;;;7.00;;
74939;SDS011;63505;45.226;37.908;2023-06-26T06:19:26;12.45;;;6.35;;
74939;SDS011;63505;45.226;37.908;2023-06-26T06:21:52;12.25;;;7.15;;
74939;SDS011;63505;45.226;37.908;2023-06-26T06:24:18;11.43;;;6.50;;
74939;SDS011;63505;45.226;37.908;2023-06-26T06:26:45;10.85;;;7.50;;
74939;SDS011;63505;45.226;37.908;2023-06-26T06:29:11;12.63;;;8.00;;
74939;SDS011;63505;45.226;37.908;2023-06-26T06:31:36;23.00;;;11.68;;
74939;SDS011;63505;45.226;37.908;2023-06-26T06:34:02;10.45;;;7.30;;
74939;SDS011;63505;45.226;37.908;2023-06-26T06:36:28;10.73;;;6.65;;
74939;SDS011;63505;45.226;37.908;2023-06-26T06:38:54;9.50;;;6.88;;
74939;SDS011;63505;45.226;37.908;2023-06-26T06:41:20;11.18;;;6.53;;
74939;SDS011;63505;45.226;37.908;2023-06-26T06:43:46;11.80;;;8.60;;
74939;SDS011;63505;45.226;37.908;2023-06-26T06:46:12;8.15;;;6.55;;
74939;SDS011;63505;45.226;37.908;2023-06-26T06:48:38;17.85;;;11.75;;
74939;SDS011;63505;45.226;37.908;2023-06-26T06:51:04;18.05;;;9.27;;
74939;SDS011;63505;45.226;37.908;2023-06-26T06:53:30;14.43;;;6.60;;
74939;SDS011;63505;45.226;37.908;2023-06-26T06:55:57;11.90;;;7.35;;
74939;SDS011;63505;45.226;37.908;2023-06-26T06:58:22;17.75;;;7.88;;
74939;SDS011;63505;45.226;37.908;2023-06-26T07:00:48;18.08;;;9.10;;
74939;SDS011;63505;45.226;37.908;2023-06-26T07:03:17;11.55;;;5.65;;
74939;SDS011;63505;45.226;37.908;2023-06-26T07:05:43;21.63;;;8.23;;
74939;SDS011;63505;45.226;37.908;2023-06-26T07:08:09;14.00;;;6.18;;
74939;SDS011;63505;45.226;37.908;2023-06-26T07:10:35;12.85;;;7.05;;
74939;SDS011;63505;45.226;37.908;2023-06-26T07:13:01;13.18;;;6.78;;
74939;SDS011;63505;45.226;37.908;2023-06-26T07:15:27;11.32;;;5.63;;
74939;SDS011;63505;45.226;37.908;2023-06-26T07:17:53;15.48;;;6.63;;
74939;SDS011;63505;45.226;37.908;2023-06-26T07:20:19;13.38;;;5.95;;
74939;SDS011;63505;45.226;37.908;2023-06-26T07:22:45;8.70;;;4.65;;
74939;SDS011;63505;45.226;37.908;2023-06-26T07:25:12;44.95;;;13.48;;
74939;SDS011;63505;45.226;37.908;2023-06-26T07:27:38;16.15;;;6.55;;
74939;SDS011;63505;45.226;37.908;2023-06-26T07:30:05;15.63;;;6.30;;
74939;SDS011;63505;45.226;37.908;2023-06-26T07:32:34;19.27;;;7.38;;
74939;SDS011;63505;45.226;37.908;2023-06-26T07:35:00;13.05;;;6.00;;
74939;SDS011;63505;45.226;37.908;2023-06-26T07:37:26;10.15;;;5.15;;
74939;SDS011;63505;45.226;37.908;2023-06-26T07:39:52;15.30;;;5.45;;
74939;SDS011;63505;45.226;37.908;2023-06-26T07:42:18;17.88;;;5.18;;
74939;SDS011;63505;45.226;37.908;2023-06-26T07:44:44;10.85;;;5.53;;
74939;SDS011;63505;45.226;37.908;2023-06-26T07:47:10;12.13;;;5.75;;
74939;SDS011;63505;45.226;37.908;2023-06-26T07:49:36;12.93;;;5.20;;
74939;SDS011;63505;45.226;37.908;2023-06-26T07:52:04;9.95;;;5.15;;
74939;SDS011;63505;45.226;37.908;2023-06-26T07:54:30;12.57;;;5.35;;
74939;SDS011;63505;45.226;37.908;2023-06-26T07:57:00;9.82;;;4.45;;
74939;SDS011;63505;45.226;37.908;2023-06-26T07:59:28;8.48;;;5.03;;
74939;SDS011;63505;45.226;37.908;2023-06-26T08:01:55;11.43;;;4.45;;
74939;SDS011;63505;45.226;37.908;2023-06-26T08:04:23;9.48;;;4.88;;
74939;SDS011;63505;45.226;37.908;2023-06-26T08:06:52;10.15;;;4.80;;
74939;SDS011;63505;45.226;37.908;2023-06-26T08:09:19;17.23;;;5.22;;
74939;SDS011;63505;45.226;37.908;2023-06-26T08:11:46;15.13;;;5.82;;
74939;SDS011;63505;45.226;37.908;2023-06-26T08:14:12;12.25;;;4.38;;
74939;SDS011;63505;45.226;37.908;2023-06-26T08:16:39;10.68;;;4.60;;
74939;SDS011;63505;45.226;37.908;2023-06-26T08:19:06;6.43;;;4.30;;
74939;SDS011;63505;45.226;37.908;2023-06-26T08:21:32;14.43;;;5.35;;
74939;SDS011;63505;45.226;37.908;2023-06-26T08:23:58;8.75;;;5.10;;
74939;SDS011;63505;45.226;37.908;2023-06-26T08:26:24;11.55;;;5.78;;
74939;SDS011;63505;45.226;37.908;2023-06-26T08:28:49;13.18;;;5.10;;
74939;SDS011;63505;45.226;37.908;2023-06-26T08:31:16;7.07;;;4.38;;
74939;SDS011;63505;45.226;37.908;2023-06-26T08:33:42;10.18;;;5.45;;
74939;SDS011;63505;45.226;37.908;2023-06-26T08:36:09;10.82;;;5.53;;
74939;SDS011;63505;45.226;37.908;2023-06-26T08:38:34;12.10;;;5.15;;
74939;SDS011;63505;45.226;37.908;2023-06-26T08:41:00;14.35;;;4.90;;
74939;SDS011;63505;45.226;37.908;2023-06-26T08:43:26;5.72;;;4.13;;
74939;SDS011;63505;45.226;37.908;2023-06-26T08:45:53;12.90;;;5.18;;
74939;SDS011;63505;45.226;37.908;2023-06-26T08:48:20;8.95;;;4.60;;
74939;SDS011;63505;45.226;37.908;2023-06-26T08:50:49;7.75;;;3.95;;
74939;SDS011;63505;45.226;37.908;2023-06-26T08:53:23;11.70;;;4.63;;
74939;SDS011;63505;45.226;37.908;2023-06-26T08:55:57;7.57;;;4.22;;
74939;SDS011;63505;45.226;37.908;2023-06-26T08:58:24;8.05;;;4.80;;
74939;SDS011;63505;45.226;37.908;2023-06-26T09:00:50;9.70;;;4.55;;
74939;SDS011;63505;45.226;37.908;2023-06-26T09:03:17;7.82;;;4.22;;
74939;SDS011;63505;45.226;37.908;2023-06-26T09:05:43;11.13;;;4.32;;
74939;SDS011;63505;45.226;37.908;2023-06-26T09:08:08;7.20;;;3.53;;
74939;SDS011;63505;45.226;37.908;2023-06-26T09:10:35;9.15;;;4.50;;
74939;SDS011;63505;45.226;37.908;2023-06-26T09:13:02;6.43;;;4.20;;
74939;SDS011;63505;45.226;37.908;2023-06-26T09:15:36;7.05;;;4.75;;
74939;SDS011;63505;45.226;37.908;2023-06-26T09:18:11;9.18;;;4.50;;
74939;SDS011;63505;45.226;37.908;2023-06-26T09:20:38;13.63;;;5.82;;
74939;SDS011;63505;45.226;37.908;2023-06-26T09:23:05;7.72;;;4.28;;
74939;SDS011;63505;45.226;37.908;2023-06-26T09:25:31;10.50;;;5.00;;
74939;SDS011;63505;45.226;37.908;2023-06-26T09:27:57;17.65;;;5.82;;
74939;SDS011;63505;45.226;37.908;2023-06-26T09:30:23;7.57;;;4.63;;
74939;SDS011;63505;45.226;37.908;2023-06-26T09:32:49;8.85;;;4.60;;
74939;SDS011;63505;45.226;37.908;2023-06-26T09:35:16;12.07;;;5.40;;
74939;SDS011;63505;45.226;37.908;2023-06-26T09:37:42;9.68;;;4.47;;
74939;SDS011;63505;45.226;37.908;2023-06-26T09:40:09;6.63;;;4.07;;
74939;SDS011;63505;45.226;37.908;2023-06-26T09:42:35;11.68;;;5.70;;
74939;SDS011;63505;45.226;37.908;2023-06-26T09:45:01;8.45;;;4.63;;
74939;SDS011;63505;45.226;37.908;2023-06-26T09:47:30;7.20;;;4.15;;
74939;SDS011;63505;45.226;37.908;2023-06-26T09:49:59;6.38;;;4.22;;
74939;SDS011;63505;45.226;37.908;2023-06-26T09:52:27;13.25;;;5.10;;
74939;SDS011;63505;45.226;37.908;2023-06-26T09:55:09;10.27;;;4.57;;
74939;SDS011;63505;45.226;37.908;2023-06-26T09:57:36;11.48;;;4.40;;
74939;SDS011;63505;45.226;37.908;2023-06-26T10:00:04;6.18;;;3.85;;
74939;SDS011;63505;45.226;37.908;2023-06-26T10:02:37;10.88;;;4.50;;
74939;SDS011;63505;45.226;37.908;2023-06-26T10:05:03;9.35;;;4.03;;
74939;SDS011;63505;45.226;37.908;2023-06-26T10:07:29;5.43;;;4.60;;
74939;SDS011;63505;45.226;37.908;2023-06-26T10:09:55;8.30;;;4.50;;
74939;SDS011;63505;45.226;37.908;2023-06-26T10:12:29;10.20;;;4.72;;
74939;SDS011;63505;45.226;37.908;2023-06-26T10:14:56;7.72;;;4.05;;
74939;SDS011;63505;45.226;37.908;2023-06-26T10:17:24;7.63;;;4.82;;
74939;SDS011;63505;45.226;37.908;2023-06-26T10:19:54;7.40;;;4.55;;
74939;SDS011;63505;45.226;37.908;2023-06-26T10:22:25;13.07;;;4.45;;
74939;SDS011;63505;45.226;37.908;2023-06-26T10:24:55;11.25;;;5.10;;
74939;SDS011;63505;45.226;37.908;2023-06-26T10:27:25;7.40;;;4.80;;
74939;SDS011;63505;45.226;37.908;2023-06-26T10:29:55;8.98;;;4.40;;
74939;SDS011;63505;45.226;37.908;2023-06-26T10:32:25;6.68;;;4.90;;
74939;SDS011;63505;45.226;37.908;2023-06-26T10:34:53;9.95;;;4.53;;
74939;SDS011;63505;45.226;37.908;2023-06-26T10:37:20;10.70;;;4.78;;
74939;SDS011;63505;45.226;37.908;2023-06-26T10:42:15;6.82;;;4.35;;
74939;SDS011;63505;45.226;37.908;2023-06-26T10:44:43;6.78;;;4.70;;
74939;SDS011;63505;45.226;37.908;2023-06-26T10:47:10;5.78;;;3.70;;
74939;SDS011;63505;45.226;37.908;2023-06-26T10:49:37;8.98;;;4.50;;
74939;SDS011;63505;45.226;37.908;2023-06-26T10:52:05;5.72;;;4.13;;
74939;SDS011;63505;45.226;37.908;2023-06-26T10:54:31;9.18;;;4.53;;
74939;SDS011;63505;45.226;37.908;2023-06-26T10:56:58;6.93;;;4.60;;
74939;SDS011;63505;45.226;37.908;2023-06-26T10:59:28;6.97;;;4.32;;
74939;SDS011;63505;45.226;37.908;2023-06-26T11:02:00;9.98;;;4.78;;
74939;SDS011;63505;45.226;37.908;2023-06-26T11:07:20;5.47;;;3.90;;
74939;SDS011;63505;45.226;37.908;2023-06-26T11:12:35;7.35;;;4.85;;
74939;SDS011;63505;45.226;37.908;2023-06-26T11:15:14;7.70;;;4.35;;
74939;SDS011;63505;45.226;37.908;2023-06-26T11:17:42;8.18;;;4.13;;
74939;SDS011;63505;45.226;37.908;2023-06-26T11:20:09;9.27;;;4.53;;
74939;SDS011;63505;45.226;37.908;2023-06-26T11:25:04;7.55;;;4.63;;
74939;SDS011;63505;45.226;37.908;2023-06-26T11:27:53;8.88;;;4.85;;
74939;SDS011;63505;45.226;37.908;2023-06-26T11:30:25;11.98;;;4.80;;
74939;SDS011;63505;45.226;37.908;2023-06-26T11:32:52;9.57;;;4.80;;
74939;SDS011;63505;45.226;37.908;2023-06-26T11:35:24;6.60;;;4.85;;
74939;SDS011;63505;45.226;37.908;2023-06-26T11:37:59;8.52;;;4.75;;
74939;SDS011;63505;45.226;37.908;2023-06-26T11:43:00;6.20;;;3.97;;
74939;SDS011;63505;45.226;37.908;2023-06-26T11:45:28;10.13;;;4.70;;
74939;SDS011;63505;45.226;37.908;2023-06-26T11:47:56;6.63;;;4.90;;
74939;SDS011;63505;45.226;37.908;2023-06-26T11:50:22;7.50;;;4.63;;
74939;SDS011;63505;45.226;37.908;2023-06-26T11:52:55;13.00;;;6.43;;
74939;SDS011;63505;45.226;37.908;2023-06-26T12:00:16;7.70;;;4.95;;
74939;SDS011;63505;45.226;37.908;2023-06-26T12:02:43;6.20;;;4.32;;
74939;SDS011;63505;45.226;37.908;2023-06-26T12:05:11;5.78;;;4.65;;
74939;SDS011;63505;45.226;37.908;2023-06-26T12:07:38;7.43;;;4.70;;
74939;SDS011;63505;45.226;37.908;2023-06-26T12:10:06;7.10;;;4.28;;
74939;SDS011;63505;45.226;37.908;2023-06-26T12:12:32;5.47;;;4.60;;
74939;SDS011;63505;45.226;37.908;2023-06-26T12:14:59;10.10;;;4.80;;
74939;SDS011;63505;45.226;37.908;2023-06-26T12:17:26;8.18;;;4.80;;
74939;SDS011;63505;45.226;37.908;2023-06-26T12:19:52;6.57;;;4.32;;
74939;SDS011;63505;45.226;37.908;2023-06-26T12:22:18;10.50;;;5.03;;
74939;SDS011;63505;45.226;37.908;2023-06-26T12:24:44;5.85;;;4.40;;
74939;SDS011;63505;45.226;37.908;2023-06-26T12:27:12;6.20;;;4.40;;
74939;SDS011;63505;45.226;37.908;2023-06-26T12:29:40;12.95;;;5.13;;
74939;SDS011;63505;45.226;37.908;2023-06-26T12:32:12;6.18;;;3.90;;
74939;SDS011;63505;45.226;37.908;2023-06-26T12:34:39;6.78;;;4.60;;
74939;SDS011;63505;45.226;37.908;2023-06-26T12:37:07;9.10;;;4.75;;
74939;SDS011;63505;45.226;37.908;2023-06-26T12:42:14;7.45;;;5.13;;
74939;SDS011;63505;45.226;37.908;2023-06-26T12:44:50;7.32;;;5.40;;
74939;SDS011;63505;45.226;37.908;2023-06-26T12:47:17;12.10;;;5.43;;
74939;SDS011;63505;45.226;37.908;2023-06-26T12:49:52;8.55;;;4.72;;
74939;SDS011;63505;45.226;37.908;2023-06-26T12:52:18;9.73;;;5.75;;
74939;SDS011;63505;45.226;37.908;2023-06-26T12:54:45;17.02;;;4.95;;
74939;SDS011;63505;45.226;37.908;2023-06-26T12:57:12;8.55;;;4.60;;
74939;SDS011;63505;45.226;37.908;2023-06-26T12:59:42;15.40;;;5.15;;
74939;SDS011;63505;45.226;37.908;2023-06-26T13:02:08;9.30;;;4.63;;
74939;SDS011;63505;45.226;37.908;2023-06-26T13:04:36;6.38;;;5.03;;
74939;SDS011;63505;45.226;37.908;2023-06-26T13:07:05;6.22;;;3.95;;
74939;SDS011;63505;45.226;37.908;2023-06-26T13:09:32;6.68;;;4.88;;
74939;SDS011;63505;45.226;37.908;2023-06-26T13:11:59;6.70;;;5.10;;
74939;SDS011;63505;45.226;37.908;2023-06-26T13:14:25;7.38;;;4.68;;
74939;SDS011;63505;45.226;37.908;2023-06-26T13:16:51;6.60;;;4.35;;
74939;SDS011;63505;45.226;37.908;2023-06-26T13:19:17;10.90;;;6.93;;
74939;SDS011;63505;45.226;37.908;2023-06-26T13:21:43;8.13;;;4.50;;
74939;SDS011;63505;45.226;37.908;2023-06-26T13:24:09;7.93;;;5.03;;
74939;SDS011;63505;45.226;37.908;2023-06-26T13:26:35;8.52;;;4.85;;
74939;SDS011;63505;45.226;37.908;2023-06-26T13:29:01;8.85;;;4.88;;
74939;SDS011;63505;45.226;37.908;2023-06-26T13:31:27;5.97;;;4.07;;
74939;SDS011;63505;45.226;37.908;2023-06-26T13:33:52;10.10;;;4.95;;
74939;SDS011;63505;45.226;37.908;2023-06-26T13:36:18;14.98;;;5.30;;
74939;SDS011;63505;45.226;37.908;2023-06-26T13:38:45;17.83;;;5.38;;
74939;SDS011;63505;45.226;37.908;2023-06-26T13:41:11;13.10;;;5.18;;
74939;SDS011;63505;45.226;37.908;2023-06-26T13:43:37;15.30;;;5.78;;
74939;SDS011;63505;45.226;37.908;2023-06-26T13:46:03;12.50;;;6.32;;
74939;SDS011;63505;45.226;37.908;2023-06-26T13:48:29;8.30;;;4.40;;
74939;SDS011;63505;45.226;37.908;2023-06-26T13:50:55;7.28;;;4.80;;
74939;SDS011;63505;45.226;37.908;2023-06-26T13:53:23;7.78;;;5.00;;
74939;SDS011;63505;45.226;37.908;2023-06-26T13:55:49;18.60;;;7.65;;
74939;SDS011;63505;45.226;37.908;2023-06-26T13:58:14;12.30;;;6.50;;
74939;SDS011;63505;45.226;37.908;2023-06-26T14:00:40;10.32;;;5.13;;
74939;SDS011;63505;45.226;37.908;2023-06-26T14:03:10;21.77;;;6.05;;
74939;SDS011;63505;45.226;37.908;2023-06-26T14:05:36;12.57;;;5.07;;
74939;SDS011;63505;45.226;37.908;2023-06-26T14:08:03;14.30;;;5.40;;
74939;SDS011;63505;45.226;37.908;2023-06-26T14:10:30;18.92;;;6.22;;
74939;SDS011;63505;45.226;37.908;2023-06-26T14:12:58;8.65;;;5.32;;
74939;SDS011;63505;45.226;37.908;2023-06-26T14:15:25;9.80;;;5.80;;
74939;SDS011;63505;45.226;37.908;2023-06-26T14:17:51;9.23;;;5.40;;
74939;SDS011;63505;45.226;37.908;2023-06-26T14:20:17;9.85;;;6.13;;
74939;SDS011;63505;45.226;37.908;2023-06-26T14:22:47;10.55;;;6.03;;
74939;SDS011;63505;45.226;37.908;2023-06-26T14:25:14;11.68;;;5.85;;
74939;SDS011;63505;45.226;37.908;2023-06-26T14:27:41;13.65;;;6.25;;
74939;SDS011;63505;45.226;37.908;2023-06-26T14:30:07;9.88;;;5.15;;
74939;SDS011;63505;45.226;37.908;2023-06-26T14:32:34;9.85;;;5.63;;
74939;SDS011;63505;45.226;37.908;2023-06-26T14:35:00;9.20;;;5.97;;
74939;SDS011;63505;45.226;37.908;2023-06-26T14:37:29;13.93;;;5.18;;
74939;SDS011;63505;45.226;37.908;2023-06-26T14:39:56;10.85;;;6.03;;
74939;SDS011;63505;45.226;37.908;2023-06-26T14:44:50;10.80;;;5.22;;
74939;SDS011;63505;45.226;37.908;2023-06-26T14:47:17;12.85;;;5.93;;
74939;SDS011;63505;45.226;37.908;2023-06-26T14:49:43;11.27;;;5.30;;
74939;SDS011;63505;45.226;37.908;2023-06-26T14:52:09;10.20;;;5.35;;
74939;SDS011;63505;45.226;37.908;2023-06-26T14:54:35;10.57;;;5.20;;
74939;SDS011;63505;45.226;37.908;2023-06-26T14:57:05;8.70;;;4.95;;